Time;durP1;ratioP1;P1;durP2;ratioP2;P2;SDS_P1;SDS_P2;PMS_P1;PMS_P2;Temp;Humidity;BMP_temperature;BMP_pressure;BME280_temperature;BME280_humidity;BME280_pressure;Samples;Min_cycle;Max_cycle;Signal;HPM_P1;HPM_P2
2022/05/16 00:02:07;;;;;;;4.72;1.30;;;;;;;10.42;57.35;98216.47;5032324;28;20067;-68
2022/05/16 00:04:39;;;;;;;1.50;0.93;;;;;;;10.43;57.41;98218.06;5032433;28;20049;-68
2022/05/16 00:07:07;;;;;;;2.03;1.08;;;;;;;10.39;57.54;98219.97;5032277;28;20140;-69
2022/05/16 00:09:34;;;;;;;1.45;1.00;;;;;;;10.43;57.41;98224.44;5032198;28;20091;-68
2022/05/16 00:12:01;;;;;;;3.75;1.38;;;;;;;10.47;56.94;98216.97;5032220;28;20055;-70
2022/05/16 00:14:28;;;;;;;1.58;0.98;;;;;;;10.50;56.55;98224.59;5032432;28;20057;-69
2022/05/16 00:16:56;;;;;;;2.22;0.88;;;;;;;10.49;57.25;98222.19;5016989;28;20160;-68
2022/05/16 00:19:22;;;;;;;1.80;1.10;;;;;;;10.47;56.51;98221.72;5035919;28;20501;-69
2022/05/16 00:21:49;;;;;;;1.77;0.95;;;;;;;10.52;56.58;98219.47;5036550;28;20420;-69
2022/05/16 00:24:18;;;;;;;5.80;1.10;;;;;;;10.54;56.54;98222.69;5036549;28;20054;-70
2022/05/16 00:26:45;;;;;;;7.00;1.40;;;;;;;10.58;56.97;98222.78;5036010;28;20045;-69
2022/05/16 00:29:12;;;;;;;4.10;0.90;;;;;;;10.62;56.50;98229.19;5036306;28;20052;-69
2022/05/16 00:31:39;;;;;;;1.38;0.88;;;;;;;10.57;56.76;98218.38;5035934;28;20049;-69
2022/05/16 00:34:06;;;;;;;4.43;1.15;;;;;;;10.58;56.57;98211.66;5036346;28;20046;-69
2022/05/16 00:36:33;;;;;;;1.98;1.00;;;;;;;10.51;56.89;98217.84;5054509;28;20069;-69
2022/05/16 00:39:00;;;;;;;3.17;1.20;;;;;;;10.50;57.06;98226.56;5056061;28;20505;-69
2022/05/16 00:41:27;;;;;;;2.50;1.00;;;;;;;10.47;57.37;98224.50;5056018;28;20052;-69
2022/05/16 00:43:58;;;;;;;5.28;0.98;;;;;;;10.43;57.08;98220.84;5055702;28;20504;-69
2022/05/16 00:46:31;;;;;;;4.00;1.00;;;;;;;10.38;56.78;98218.34;5055952;28;20059;-69
2022/05/16 00:49:00;;;;;;;1.40;0.90;;;;;;;10.36;56.98;98223.50;5056168;28;20045;-69
2022/05/16 00:51:34;;;;;;;3.13;1.13;;;;;;;10.30;57.23;98233.28;5055936;28;20571;-70
2022/05/16 00:54:20;;;;;;;1.92;1.13;;;;;;;10.25;57.90;98225.22;5035678;28;20180;-70
2022/05/16 00:56:51;;;;;;;3.20;1.00;;;;;;;10.16;57.54;98225.38;5035803;28;20148;-69
2022/05/16 00:59:23;;;;;;;4.07;0.90;;;;;;;10.12;58.12;98226.47;5036570;28;20144;-69
2022/05/16 01:04:49;;;;;;;1.83;1.15;;;;;;;10.04;58.43;98236.59;5035748;28;20145;-70
2022/05/16 01:07:23;;;;;;;1.60;1.10;;;;;;;10.05;58.39;98226.28;5035224;28;20049;-69
2022/05/16 01:09:51;;;;;;;4.35;1.25;;;;;;;10.01;58.14;98234.53;5035119;28;20049;-68
2022/05/16 01:12:18;;;;;;;1.70;1.20;;;;;;;10.01;58.55;98225.41;5035210;28;20053;-70
2022/05/16 01:14:56;;;;;;;2.40;0.90;;;;;;;9.99;57.42;98238.84;5035406;28;20808;-69
2022/05/16 01:17:24;;;;;;;2.22;1.35;;;;;;;9.95;57.58;98246.28;5035430;28;20459;-69
2022/05/16 01:19:52;;;;;;;2.03;0.95;;;;;;;9.94;58.46;98247.44;5035237;28;20045;-68
2022/05/16 01:22:22;;;;;;;4.80;1.20;;;;;;;9.93;58.01;98252.22;5035018;28;20412;-69
2022/05/16 01:24:52;;;;;;;4.07;1.70;;;;;;;9.92;57.88;98244.25;5035026;28;20067;-68
2022/05/16 01:27:20;;;;;;;3.85;1.25;;;;;;;10.00;57.00;98251.56;5035198;28;20412;-68
2022/05/16 01:29:48;;;;;;;2.33;1.00;;;;;;;10.04;57.23;98253.25;5035321;28;20057;-69
2022/05/16 01:32:16;;;;;;;4.68;1.05;;;;;;;10.02;56.56;98243.69;5017203;28;20049;-69
2022/05/16 01:34:43;;;;;;;2.35;0.85;;;;;;;10.05;56.54;98249.31;5039223;28;20049;-69
2022/05/16 01:37:10;;;;;;;3.22;0.95;;;;;;;10.05;56.92;98254.06;5054924;28;20052;-69
2022/05/16 01:39:37;;;;;;;1.77;0.90;;;;;;;10.05;56.95;98259.63;5054933;28;20519;-69
2022/05/16 01:42:04;;;;;;;2.95;1.15;;;;;;;10.02;56.29;98254.78;5043676;28;20041;-69
2022/05/16 01:44:31;;;;;;;1.40;1.00;;;;;;;10.02;56.52;98263.13;5035285;28;20049;-74
2022/05/16 01:46:58;;;;;;;1.20;0.80;;;;;;;9.96;56.28;98250.66;5034926;28;20053;-73
2022/05/16 01:49:25;;;;;;;5.30;0.80;;;;;;;9.96;56.45;98261.78;5034868;28;20065;-74
2022/05/16 01:51:52;;;;;;;2.63;1.00;;;;;;;9.92;56.41;98260.91;5034911;28;20504;-73
2022/05/16 01:54:19;;;;;;;3.03;1.00;;;;;;;9.92;56.43;98261.69;5034809;28;20053;-72
2022/05/16 01:56:46;;;;;;;4.55;0.88;;;;;;;9.93;56.18;98259.72;5034470;28;20045;-73
2022/05/16 01:59:13;;;;;;;3.60;0.90;;;;;;;9.91;56.47;98267.59;5034473;28;20053;-74
2022/05/16 02:01:40;;;;;;;5.15;1.00;;;;;;;9.89;56.93;98262.41;5034301;28;20061;-74
2022/05/16 02:04:07;;;;;;;8.95;0.90;;;;;;;9.86;56.84;98265.13;5034209;28;20413;-72
2022/05/16 02:06:34;;;;;;;3.28;1.17;;;;;;;9.73;56.81;98258.03;5016582;28;20087;-74
2022/05/16 02:09:01;;;;;;;2.05;0.70;;;;;;;9.73;56.79;98274.69;5033985;28;20065;-74
2022/05/16 02:11:28;;;;;;;3.92;1.02;;;;;;;9.70;57.57;98269.84;5034295;28;20053;-74
2022/05/16 02:13:55;;;;;;;2.67;1.05;;;;;;;9.71;56.76;98274.25;5034493;28;20084;-74
2022/05/16 02:16:22;;;;;;;4.47;0.90;;;;;;;9.69;57.22;98269.06;5034325;28;20060;-73
2022/05/16 02:18:49;;;;;;;1.63;0.80;;;;;;;9.66;57.34;98266.19;5034039;28;20084;-74
2022/05/16 02:26:48;;;;;;;1.27;0.85;;;;;;;9.54;57.40;98271.81;5034416;28;20045;-72
2022/05/16 02:29:18;;;;;;;1.13;0.70;;;;;;;9.54;57.90;98272.63;5034158;28;20215;-73
2022/05/16 02:31:46;;;;;;;1.87;0.70;;;;;;;9.55;57.52;98278.97;5034093;28;20132;-75
2022/05/16 02:34:14;;;;;;;5.07;0.98;;;;;;;9.53;57.92;98286.88;5033870;28;20354;-73
2022/05/16 02:36:41;;;;;;;2.20;0.80;;;;;;;9.55;57.61;98274.22;5040283;28;20051;-74
2022/05/16 02:39:09;;;;;;;3.55;1.10;;;;;;;9.61;56.68;98280.31;5053334;28;20063;-73
2022/05/16 02:41:36;;;;;;;3.05;0.90;;;;;;;9.63;57.03;98287.16;5053951;28;20144;-74
2022/05/16 02:44:03;;;;;;;1.23;0.82;;;;;;;9.65;56.29;98284.00;5053889;28;20395;-73
2022/05/16 02:46:31;;;;;;;1.50;0.98;;;;;;;9.69;56.99;98284.91;5053751;28;20053;-74
2022/05/16 02:48:58;;;;;;;1.85;0.90;;;;;;;9.67;56.44;98282.47;5036546;28;20126;-73
2022/05/16 02:51:25;;;;;;;1.80;0.80;;;;;;;9.63;56.57;98291.88;5033824;28;20045;-73
2022/05/16 02:53:52;;;;;;;1.40;0.85;;;;;;;9.63;56.81;98291.88;5033688;28;20054;-74
2022/05/16 02:56:19;;;;;;;1.80;0.70;;;;;;;9.64;56.84;98296.25;5033475;28;20107;-73
2022/05/16 02:58:46;;;;;;;2.30;0.77;;;;;;;9.60;56.41;98285.09;5015786;28;20046;-73
2022/05/16 03:01:13;;;;;;;1.95;0.82;;;;;;;9.59;56.37;98293.78;5033608;28;20049;-73
2022/05/16 03:03:41;;;;;;;1.42;0.80;;;;;;;9.52;56.61;98297.16;5034032;28;20050;-74
2022/05/16 03:06:09;;;;;;;1.17;0.80;;;;;;;9.50;56.69;98304.22;5033330;28;20045;-74
2022/05/16 03:08:37;;;;;;;7.38;0.80;;;;;;;9.49;56.66;98306.19;5033208;28;20516;-74
2022/05/16 03:11:05;;;;;;;2.15;0.65;;;;;;;9.48;56.28;98312.09;5015928;28;20461;-72
2022/05/16 03:13:33;;;;;;;1.90;0.77;;;;;;;9.48;56.36;98301.00;5033433;28;20068;-73
2022/05/16 03:16:00;;;;;;;1.05;0.73;;;;;;;9.48;56.55;98309.31;5033104;28;20588;-73
2022/05/16 03:18:29;;;;;;;5.78;1.80;;;;;;;9.44;56.20;98311.22;5033336;28;20056;-73
2022/05/16 03:20:57;;;;;;;2.75;0.88;;;;;;;9.48;56.34;98309.31;5033290;28;20493;-73
2022/05/16 03:23:25;;;;;;;2.25;0.70;;;;;;;9.46;56.56;98308.88;5032939;28;20416;-72
2022/05/16 03:25:53;;;;;;;1.08;0.63;;;;;;;9.46;56.45;98308.88;5033208;28;20049;-73
2022/05/16 03:28:20;;;;;;;2.15;0.70;;;;;;;9.45;56.27;98310.03;5015908;28;20456;-72
2022/05/16 03:30:48;;;;;;;2.13;0.90;;;;;;;9.45;56.21;98312.81;5033134;28;20416;-74
2022/05/16 03:33:15;;;;;;;0.60;0.50;;;;;;;9.47;56.07;98311.28;5032772;28;20045;-68
2022/05/16 03:35:42;;;;;;;1.00;0.70;;;;;;;9.61;56.15;98316.41;5032956;28;20049;-69
2022/05/16 03:40:41;;;;;;;7.43;0.80;;;;;;;9.78;55.34;98299.41;5038118;28;20041;-69
2022/05/16 03:40:57;;;;;;;1.70;0.75;;;;;;;9.93;54.53;98312.50;5033004;28;20084;-69
2022/05/16 03:43:24;;;;;;;1.33;0.80;;;;;;;9.99;54.48;98305.50;5032749;28;20407;-69
2022/05/16 03:45:51;;;;;;;0.98;0.73;;;;;;;10.16;54.45;98300.41;5033082;28;20053;-70
2022/05/16 03:48:18;;;;;;;5.68;0.90;;;;;;;10.29;54.52;98312.25;5032500;28;20057;-70
2022/05/16 03:50:45;;;;;;;1.80;0.80;;;;;;;10.37;54.15;98311.25;5032304;28;20054;-69
2022/05/16 03:53:12;;;;;;;2.80;0.68;;;;;;;10.52;53.45;98308.47;5032576;28;20049;-69
2022/05/16 03:55:39;;;;;;;2.95;0.98;;;;;;;10.65;52.73;98306.34;5032762;28;20063;-69
2022/05/16 03:58:06;;;;;;;1.75;0.68;;;;;;;10.71;52.95;98311.25;5032309;28;20053;-69
2022/05/16 04:00:33;;;;;;;1.35;0.52;;;;;;;10.80;52.98;98303.53;5032682;28;20052;-69
2022/05/16 04:03:00;;;;;;;5.78;0.70;;;;;;;10.93;52.14;98312.56;5032437;28;20045;-69
2022/05/16 04:05:27;;;;;;;2.05;0.77;;;;;;;11.10;51.78;98306.53;5032628;28;20053;-70
2022/05/16 04:07:54;;;;;;;1.30;0.73;;;;;;;11.19;51.08;98298.78;5032375;28;20077;-69
2022/05/16 04:10:21;;;;;;;1.05;0.70;;;;;;;11.29;50.90;98309.34;5032428;28;20132;-69
2022/05/16 04:12:48;;;;;;;1.00;0.70;;;;;;;11.42;50.90;98308.00;5032178;28;20094;-70
2022/05/16 04:15:15;;;;;;;3.92;0.75;;;;;;;11.57;50.57;98298.75;5032268;28;20053;-68
2022/05/16 04:17:43;;;;;;;1.00;0.65;;;;;;;11.72;49.73;98303.44;5032580;28;20049;-69
2022/05/16 04:20:11;;;;;;;3.13;0.60;;;;;;;11.77;49.80;98300.34;5032446;28;20052;-69
2022/05/16 04:22:39;;;;;;;1.23;0.70;;;;;;;11.92;49.27;98309.75;5032186;28;20083;-70
2022/05/16 04:25:08;;;;;;;1.50;0.60;;;;;;;12.01;48.48;98315.88;5032549;28;20120;-71
2022/05/16 04:27:37;;;;;;;1.10;0.60;;;;;;;11.94;47.90;98308.22;5032320;28;20440;-70
2022/05/16 04:30:04;;;;;;;1.90;0.57;;;;;;;11.95;48.04;98309.00;5032011;28;20124;-69
2022/05/16 04:32:31;;;;;;;1.25;0.60;;;;;;;11.93;48.03;98300.25;5032581;28;20079;-70
2022/05/16 04:34:58;;;;;;;3.10;0.70;;;;;;;12.00;47.79;98300.34;5032089;28;20100;-69
2022/05/16 04:37:26;;;;;;;2.30;0.52;;;;;;;12.17;47.83;98305.44;5044345;28;20518;-70
2022/05/16 04:39:53;;;;;;;0.80;0.50;;;;;;;12.34;46.67;98293.75;5052042;28;20128;-70
2022/05/16 04:45:07;;;;;;;3.20;0.70;;;;;;;12.32;46.61;98296.13;5033014;28;20489;-70
2022/05/16 04:47:34;;;;;;;0.82;0.50;;;;;;;12.41;46.84;98289.06;5032163;28;20045;-70
2022/05/16 04:50:01;;;;;;;1.02;0.52;;;;;;;12.66;46.22;98295.84;5032160;28;20064;-69
2022/05/16 04:52:29;;;;;;;1.00;0.50;;;;;;;12.91;45.35;98285.03;5032171;28;20095;-70
2022/05/16 04:54:56;;;;;;;1.42;0.85;;;;;;;13.10;45.12;98290.50;5032066;28;20448;-71
2022/05/16 04:57:23;;;;;;;2.45;0.80;;;;;;;13.36;44.77;98289.63;5014988;28;20449;-70
2022/05/16 04:59:50;;;;;;;1.33;0.60;;;;;;;13.42;44.15;98293.69;5032022;28;20107;-70
2022/05/16 05:02:17;;;;;;;0.93;0.60;;;;;;;13.42;43.70;98294.50;5032507;28;20100;-69
2022/05/16 05:04:45;;;;;;;5.05;1.75;;;;;;;13.64;42.82;98292.72;5035379;28;20465;-70
2022/05/16 05:07:12;;;;;;;1.00;0.60;;;;;;;13.67;42.28;98272.38;5035285;28;20115;-70
2022/05/16 05:15:13;;;;;;;1.88;0.70;;;;;;;13.70;42.14;98293.97;5035225;28;20049;-70
2022/05/16 05:17:41;;;;;;;5.00;0.50;;;;;;;13.86;41.64;98284.16;5018549;28;20073;-70
2022/05/16 05:20:13;;;;;;;2.00;0.70;;;;;;;13.94;41.54;98288.66;5035360;28;20056;-70
2022/05/16 05:22:44;;;;;;;2.72;0.60;;;;;;;13.91;41.88;98288.59;5035286;28;20064;-70
2022/05/16 05:25:13;;;;;;;1.08;0.60;;;;;;;13.78;41.69;98285.31;5035288;28;20046;-70
2022/05/16 05:27:40;;;;;;;3.75;0.88;;;;;;;13.57;42.08;98293.47;5017562;28;20055;-69
2022/05/16 05:30:11;;;;;;;0.88;0.50;;;;;;;13.39;41.79;98288.84;5035166;28;20145;-69
2022/05/16 05:32:38;;;;;;;0.68;0.50;;;;;;;13.23;42.53;98291.06;5034928;28;20046;-69
2022/05/16 05:35:06;;;;;;;0.88;0.70;;;;;;;13.35;42.34;98293.59;5023580;28;20531;-70
2022/05/16 05:37:32;;;;;;;3.33;0.60;;;;;;;13.94;41.27;98282.25;5035004;28;20049;-71
2022/05/16 05:40:01;;;;;;;1.48;0.60;;;;;;;13.70;41.10;98268.81;5035216;28;20080;-71
2022/05/16 05:42:29;;;;;;;0.80;0.40;;;;;;;13.50;41.45;98289.78;5034926;28;20512;-71
2022/05/16 05:44:56;;;;;;;1.77;0.60;;;;;;;13.28;42.08;98288.72;5044588;28;20423;-71
2022/05/16 05:47:24;;;;;;;1.45;0.73;;;;;;;13.73;41.92;98291.22;5055187;28;20147;-70
2022/05/16 05:49:51;;;;;;;5.25;1.10;;;;;;;14.10;41.45;98285.59;5054710;28;20110;-69
2022/05/16 05:52:18;;;;;;;6.38;0.75;;;;;;;14.04;40.93;98287.16;5054468;28;20044;-69
2022/05/16 05:54:46;;;;;;;1.08;0.60;;;;;;;13.76;41.36;98298.03;5022604;28;20136;-71
2022/05/16 05:57:16;;;;;;;0.75;0.50;;;;;;;13.45;41.76;98290.13;5034752;28;20061;-70
2022/05/16 05:59:43;;;;;;;2.20;0.80;;;;;;;13.31;41.72;98299.13;5034810;28;20419;-71
2022/05/16 06:02:10;;;;;;;2.45;0.65;;;;;;;13.31;41.57;98293.56;5034140;28;20049;-71
2022/05/16 06:04:38;;;;;;;2.03;0.82;;;;;;;13.52;41.44;98301.38;5033979;28;20044;-72
2022/05/16 06:07:05;;;;;;;3.47;0.70;;;;;;;13.61;41.51;98296.28;5034540;28;20132;-70
2022/05/16 06:09:33;;;;;;;20.90;0.73;;;;;;;14.28;39.97;98292.19;5034086;28;20145;-70
2022/05/16 06:12:02;;;;;;;4.53;1.10;;;;;;;14.00;40.67;98303.06;5034442;28;20152;-68
2022/05/16 06:14:30;;;;;;;15.25;0.70;;;;;;;13.72;41.12;98297.22;5033445;28;20049;-69
2022/05/16 06:16:57;;;;;;;7.65;0.57;;;;;;;13.57;40.84;98301.84;5034499;28;20151;-69
2022/05/16 06:19:24;;;;;;;6.15;1.80;;;;;;;13.35;40.56;98305.56;5034568;28;20103;-70
2022/05/16 06:21:51;;;;;;;6.85;0.80;;;;;;;13.30;40.91;98303.13;5016634;28;20400;-69
2022/05/16 06:27:05;;;;;;;1.80;0.70;;;;;;;13.46;41.00;98302.91;5033848;28;20077;-69
2022/05/16 06:29:32;;;;;;;3.47;0.73;;;;;;;13.54;40.98;98312.97;5034023;28;20148;-71
2022/05/16 06:31:59;;;;;;;6.65;0.70;;;;;;;13.77;40.44;98306.03;5033857;28;20052;-68
2022/05/16 06:34:26;;;;;;;2.10;0.43;;;;;;;13.85;40.18;98304.94;5033942;28;20053;-68
2022/05/16 06:36:53;;;;;;;5.72;0.90;;;;;;;13.93;39.61;98305.81;5033743;28;20068;-68
2022/05/16 06:39:20;;;;;;;4.97;0.70;;;;;;;14.61;38.34;98283.63;5047872;28;20548;-68
2022/05/16 06:41:47;;;;;;;3.08;0.60;;;;;;;14.80;37.17;98297.34;5053723;28;20128;-71
2022/05/16 06:44:15;;;;;;;5.10;0.77;;;;;;;15.49;36.52;98295.31;5037483;28;20524;-70
2022/05/16 06:46:44;;;;;;;3.40;0.70;;;;;;;15.93;36.04;98293.84;5033640;28;20046;-70
2022/05/16 06:49:12;;;;;;;2.53;1.03;;;;;;;19.05;32.07;98288.09;5033913;28;20053;-69
2022/05/16 06:51:39;;;;;;;2.78;0.90;;;;;;;21.36;28.26;98280.97;5033548;28;20052;-69
2022/05/16 06:54:07;;;;;;;2.33;0.70;;;;;;;23.59;24.67;98289.34;5033796;28;20144;-70
2022/05/16 06:56:34;;;;;;;1.35;0.70;;;;;;;24.81;23.23;98284.69;5033425;28;20057;-70
2022/05/16 06:59:00;;;;;;;2.65;0.82;;;;;;;28.09;20.13;98280.31;5033182;28;20049;-70
2022/05/16 07:01:27;;;;;;;2.47;0.90;;;;;;;27.19;20.36;98282.38;5033167;28;20064;-70
2022/05/16 07:03:54;;;;;;;2.22;0.60;;;;;;;26.26;21.05;98295.25;5033298;28;20045;-69
2022/05/16 07:06:21;;;;;;;3.10;0.88;;;;;;;23.69;23.57;98279.69;5033171;28;20068;-69
2022/05/16 07:08:49;;;;;;;0.75;0.50;;;;;;;21.57;25.37;98291.84;5033122;28;20096;-71
2022/05/16 07:11:16;;;;;;;2.72;0.70;;;;;;;23.04;23.40;98279.09;5033049;28;20045;-73
2022/05/16 07:13:43;;;;;;;26.88;1.73;;;;;;;22.55;23.49;98294.53;5033322;28;20137;-69
2022/05/16 07:16:10;;;;;;;0.82;0.40;;;;;;;21.95;23.75;98284.59;5033154;28;20099;-69
2022/05/16 07:18:37;;;;;;;5.70;0.80;;;;;;;22.33;23.91;98294.22;5033143;28;20072;-70
2022/05/16 07:21:05;;;;;;;6.68;1.10;;;;;;;26.39;20.36;98273.91;5043852;28;20411;-70
2022/05/16 07:23:31;;;;;;;1.67;0.70;;;;;;;28.19;18.13;98283.94;5053220;28;20056;-70
2022/05/16 07:28:44;;;;;;;8.45;1.00;;;;;;;23.09;22.36;98296.34;5052916;28;20049;-69
2022/05/16 07:31:11;;;;;;;3.80;0.57;;;;;;;20.57;25.04;98291.28;5052558;28;20144;-71
2022/05/16 07:33:38;;;;;;;12.65;0.98;;;;;;;21.73;24.00;98292.72;5036710;28;20048;-68
2022/05/16 07:36:06;;;;;;;2.42;0.80;;;;;;;26.65;19.09;98289.56;5032704;28;20412;-70
2022/05/16 07:38:33;;;;;;;3.00;1.20;;;;;;;30.75;15.46;98275.28;5040025;28;20057;-69
2022/05/16 07:41:00;;;;;;;0.73;0.40;;;;;;;30.33;15.19;98258.44;5052433;28;20049;-69
2022/05/16 07:43:28;;;;;;;4.18;0.82;;;;;;;28.18;17.59;98276.63;5049447;28;20445;-69
2022/05/16 07:45:55;;;;;;;10.32;1.10;;;;;;;28.99;16.94;98279.16;5032674;28;20049;-69
2022/05/16 07:48:22;;;;;;;1.98;0.77;;;;;;;27.47;17.40;98281.19;5032644;28;20574;-69
2022/05/16 07:50:49;;;;;;;3.30;0.88;;;;;;;27.36;17.70;98284.50;5032599;28;20393;-69
2022/05/16 07:53:16;;;;;;;10.93;1.23;;;;;;;29.69;16.35;98275.47;5032402;28;20412;-70
2022/05/16 07:55:51;;;;;;;1.27;0.57;;;;;;;30.01;15.42;98274.53;5033502;28;20049;-69
2022/05/16 07:58:20;;;;;;;2.58;0.68;;;;;;;26.01;18.41;98264.06;5032379;28;20412;-70
2022/05/16 08:00:53;;;;;;;6.07;0.93;;;;;;;24.28;20.81;98279.94;5032495;28;20041;-69
2022/05/16 08:03:23;;;;;;;2.60;0.50;;;;;;;22.65;22.16;98265.91;5032207;28;20144;-69
2022/05/16 08:05:50;;;;;;;;;;;;;;;21.29;23.35;98286.78;5032611;28;20053;-69
2022/05/16 08:11:03;;;;;;;3.83;0.80;;;;;;;18.83;26.36;98278.28;5032473;28;20046;-68
2022/05/16 08:13:30;;;;;;;7.53;0.60;;;;;;;18.07;27.33;98270.03;5032969;28;20060;-68
2022/05/16 08:15:58;;;;;;;2.30;0.68;;;;;;;17.37;27.67;98282.47;5032487;28;20049;-69
2022/05/16 08:18:25;;;;;;;2.67;1.25;;;;;;;17.32;27.61;98279.28;5032156;28;20520;-69
2022/05/16 08:20:53;;;;;;;3.47;0.55;;;;;;;17.15;28.07;98286.56;5017930;28;20057;-69
2022/05/16 08:23:30;;;;;;;2.15;1.10;;;;;;;17.40;28.16;98289.25;5012597;28;20053;-68
2022/05/16 08:26:04;;;;;;;3.78;0.80;;;;;;;23.17;22.06;98277.91;5012349;28;20144;-69
2022/05/16 08:28:32;;;;;;;2.55;1.33;;;;;;;29.40;16.73;98278.25;5012349;28;20477;-70
2022/05/16 08:31:00;;;;;;;3.03;0.65;;;;;;;28.37;17.08;98267.53;5011198;28;20054;-70
2022/05/16 08:33:27;;;;;;;2.83;0.75;;;;;;;24.77;20.21;98272.63;5012534;28;20045;-69
2022/05/16 08:41:29;;;;;;;2.58;0.70;;;;;;;17.99;27.59;98279.75;5052841;28;20100;-68
2022/05/16 08:44:14;;;;;;;4.38;0.88;;;;;;;17.27;28.36;98285.31;5056374;28;20047;-70
2022/05/16 08:46:55;;;;;;;7.82;0.65;;;;;;;16.55;29.81;98290.69;5055864;28;20141;-70
2022/05/16 08:49:32;;;;;;;1.95;0.75;;;;;;;15.95;32.89;98305.47;5055546;28;20045;-69
2022/05/16 08:52:31;;;;;;;3.40;0.88;;;;;;;15.18;34.88;98290.34;5035903;28;20452;-70
2022/05/16 08:55:07;;;;;;;2.50;0.70;;;;;;;14.87;35.73;98294.59;5036078;28;20057;-69
2022/05/16 08:57:40;;;;;;;2.53;0.80;;;;;;;14.82;36.17;98292.16;5035703;28;20141;-69
2022/05/16 09:00:25;;;;;;;1.00;0.80;;;;;;;14.56;36.95;98281.19;5035721;28;20076;-69
2022/05/16 09:02:54;;;;;;;1.88;0.65;;;;;;;15.01;36.44;98280.66;5034400;28;20143;-70
2022/05/16 09:05:29;;;;;;;6.00;0.75;;;;;;;15.37;35.63;98290.84;5035888;28;20053;-69
2022/05/16 09:07:59;;;;;;;3.35;0.80;;;;;;;15.51;35.69;98290.13;5035204;28;20433;-70
2022/05/16 09:10:38;;;;;;;2.67;1.15;;;;;;;15.67;35.52;98293.38;5035452;28;20087;-70
2022/05/16 09:13:14;;;;;;;14.32;1.83;;;;;;;16.02;35.26;98290.66;5035806;28;20511;-69
2022/05/16 09:15:51;;;;;;;3.50;0.80;;;;;;;17.73;32.50;98300.00;5035427;28;20068;-70
2022/05/16 09:18:33;;;;;;;2.20;0.80;;;;;;;23.81;23.68;98279.75;5035486;28;20107;-69
2022/05/16 09:21:16;;;;;;;3.17;0.80;;;;;;;28.39;18.84;98275.63;5035499;28;20104;-70
2022/05/16 09:23:52;;;;;;;9.10;1.48;;;;;;;32.17;15.71;98269.81;5035365;28;20555;-69
2022/05/16 09:26:35;;;;;;;2.05;0.70;;;;;;;33.55;13.37;98267.16;5035342;28;20115;-70
2022/05/16 09:29:17;;;;;;;1.65;0.80;;;;;;;30.42;15.30;98251.78;5035555;28;20057;-71
2022/05/16 09:31:48;;;;;;;3.90;0.68;;;;;;;26.63;18.07;98255.00;5035364;28;20488;-70
2022/05/16 09:34:23;;;;;;;1.95;0.60;;;;;;;25.32;19.75;98259.72;5035902;28;20128;-70
2022/05/16 09:36:50;;;;;;;7.32;0.80;;;;;;;24.09;20.89;98259.00;5035349;28;20141;-69
2022/05/16 09:39:22;;;;;;;1.27;0.60;;;;;;;22.56;21.57;98271.41;5035101;28;20057;-69
2022/05/16 09:41:48;;;;;;;1.70;0.60;;;;;;;21.58;23.26;98268.78;5052022;28;20049;-74
2022/05/16 09:44:24;;;;;;;1.63;0.40;;;;;;;19.90;25.19;98268.94;5054689;28;20063;-73
2022/05/16 09:47:14;;;;;;;2.88;0.70;;;;;;;18.25;28.48;98279.16;5054815;28;20056;-75
2022/05/16 09:49:42;;;;;;;1.30;0.60;;;;;;;17.17;31.36;98297.41;5047811;28;20547;-74
2022/05/16 09:52:20;;;;;;;0.75;0.40;;;;;;;16.48;33.00;98301.91;5015010;28;20053;-74
2022/05/16 09:55:00;;;;;;;4.20;0.70;;;;;;;15.97;33.99;98299.44;5015327;28;20401;-74
2022/05/16 09:57:27;;;;;;;1.45;0.50;;;;;;;15.56;35.05;98290.56;5015013;28;20053;-75
2022/05/16 10:00:10;;;;;;;2.28;0.70;;;;;;;15.39;35.82;98299.69;5014634;28;20045;-65
2022/05/16 10:02:37;;;;;;;2.25;0.68;;;;;;;15.30;36.34;98293.63;5014765;28;20088;-67
2022/05/16 10:05:24;;;;;;;5.28;0.98;;;;;;;15.21;36.25;98301.56;5015116;28;20053;-66
2022/05/16 10:08:00;;;;;;;1.38;0.60;;;;;;;15.04;35.91;98319.09;5014128;28;20144;-66
2022/05/16 10:10:36;;;;;;;0.68;0.55;;;;;;;14.84;35.96;98329.00;5015289;28;20053;-66
2022/05/16 10:13:04;;;;;;;0.77;0.50;;;;;;;14.81;35.31;98315.78;5014503;28;20169;-66
2022/05/16 10:15:33;;;;;;;0.80;0.52;;;;;;;14.75;34.90;98328.53;5014693;28;20144;-66
2022/05/16 10:18:02;;;;;;;1.40;0.50;;;;;;;14.56;35.17;98320.38;5014581;28;20119;-65
2022/05/16 10:20:36;;;;;;;4.32;0.50;;;;;;;14.43;35.65;98327.47;5014515;28;20584;-66
2022/05/16 10:23:08;;;;;;;1.83;0.75;;;;;;;14.35;35.55;98325.81;5013178;28;20045;-66
2022/05/16 10:25:45;;;;;;;10.95;0.77;;;;;;;14.46;35.64;98332.28;5014532;28;20084;-66
2022/05/16 10:28:18;;;;;;;1.55;0.55;;;;;;;14.68;35.45;98317.25;5014331;28;20480;-66
2022/05/16 10:33:35;;;;;;;1.00;0.65;;;;;;;15.03;35.25;98311.88;5014190;28;20057;-66
2022/05/16 10:36:13;;;;;;;4.38;1.55;;;;;;;15.22;35.34;98314.38;5014489;28;20498;-66
2022/05/16 10:38:56;;;;;;;4.63;0.77;;;;;;;15.34;35.55;98308.44;5014531;28;20064;-66
2022/05/16 10:41:29;;;;;;;1.85;0.90;;;;;;;15.48;35.35;98311.34;5051490;28;20512;-66
2022/05/16 10:44:13;;;;;;;1.33;0.77;;;;;;;15.72;35.05;98312.63;5053758;28;20508;-66
2022/05/16 10:46:44;;;;;;;2.00;0.70;;;;;;;15.68;34.85;98315.41;5053772;28;20053;-66
2022/05/16 10:49:16;;;;;;;1.40;0.70;;;;;;;15.66;35.22;98311.41;5053632;28;20041;-65
2022/05/16 10:51:49;;;;;;;3.40;0.80;;;;;;;15.36;35.14;98317.25;5033716;28;20518;-66
2022/05/16 10:54:21;;;;;;;3.17;1.00;;;;;;;15.13;35.51;98333.53;5033550;28;20140;-65
2022/05/16 10:57:06;;;;;;;7.10;0.57;;;;;;;14.76;36.41;98318.94;5033449;28;20060;-65
2022/05/16 10:59:34;;;;;;;1.45;0.70;;;;;;;14.43;37.06;98333.06;5033356;28;20060;-66
2022/05/16 11:02:12;;;;;;;1.77;0.60;;;;;;;14.11;37.16;98326.34;5033198;28;20049;-67
2022/05/16 11:04:59;;;;;;;4.78;1.00;;;;;;;13.85;37.71;98332.88;5033448;28;20057;-66
2022/05/16 11:08:02;;;;;;;2.65;0.98;;;;;;;13.82;37.81;98330.84;5033357;28;20072;-66
2022/05/16 11:10:43;;;;;;;1.95;1.00;;;;;;;13.98;37.97;98327.84;5033792;28;20052;-66
2022/05/16 11:13:20;;;;;;;1.95;0.90;;;;;;;14.16;37.60;98312.03;5033309;28;20132;-65
2022/05/16 11:15:54;;;;;;;2.30;1.00;;;;;;;14.36;37.82;98313.44;5015336;28;20053;-66
2022/05/16 11:18:51;;;;;;;2.30;0.90;;;;;;;14.63;37.09;98309.25;5032839;28;20548;-66
2022/05/16 11:21:37;;;;;;;7.93;0.95;;;;;;;14.73;37.27;98305.72;5029397;28;20057;-67
2022/05/16 11:24:19;;;;;;;3.65;0.93;;;;;;;14.86;36.93;98295.00;5033100;28;20128;-66
2022/05/16 11:26:53;;;;;;;2.60;0.63;;;;;;;14.93;36.92;98295.84;5014775;28;20151;-65
2022/05/16 11:29:53;;;;;;;6.80;0.68;;;;;;;15.05;36.68;98292.72;5033103;28;20136;-68
2022/05/16 11:32:32;;;;;;;4.32;0.82;;;;;;;15.11;36.93;98288.34;5032682;28;20060;-66
2022/05/16 11:35:33;;;;;;;2.87;0.70;;;;;;;14.92;37.06;98283.00;5032943;28;20558;-65
2022/05/16 11:38:26;;;;;;;1.70;0.73;;;;;;;14.97;36.62;98271.44;5032723;28;20500;-65
2022/05/16 11:41:20;;;;;;;1.73;0.85;;;;;;;15.08;36.83;98265.91;5033248;28;20076;-65
2022/05/16 11:43:51;;;;;;;3.85;1.20;;;;;;;14.90;36.17;98265.00;5052364;28;20144;-66
2022/05/16 11:46:31;;;;;;;4.28;1.10;;;;;;;14.72;35.71;98267.72;5052873;28;20400;-66
2022/05/16 11:49:50;;;;;;;2.13;1.20;;;;;;;14.61;34.80;98256.47;5049378;28;20440;-66
2022/05/16 11:52:57;;;;;;;2.08;0.50;;;;;;;14.41;35.04;98271.09;5012857;28;20045;-66
2022/05/16 12:01:04;;;;;;;1.73;0.45;;;;;;;14.23;35.64;98289.69;5052336;28;20144;-66
2022/05/16 12:03:40;;;;;;;1.35;0.50;;;;;;;14.20;35.78;98282.09;5052729;28;20049;-66
2022/05/16 12:06:33;;;;;;;8.05;0.85;;;;;;;14.09;35.76;98289.56;5052338;28;20045;-66
2022/05/16 12:09:21;;;;;;;4.18;0.75;;;;;;;14.05;35.57;98308.31;5051847;28;20151;-66
2022/05/16 12:11:56;;;;;;;5.60;0.50;;;;;;;13.88;35.28;98303.34;5052694;28;20049;-66
2022/05/16 12:14:27;;;;;;;8.35;0.47;;;;;;;13.88;35.42;98304.16;5044967;28;20107;-65
2022/05/16 12:16:58;;;;;;;2.05;0.70;;;;;;;14.00;35.77;98297.47;5036949;28;20493;-68
2022/05/16 12:19:37;;;;;;;1.52;0.55;;;;;;;14.31;36.11;98305.41;5035423;28;20059;-66
2022/05/16 12:22:13;;;;;;;1.65;0.45;;;;;;;14.43;36.17;98300.31;5031438;28;20045;-66
2022/05/16 12:24:52;;;;;;;1.88;0.52;;;;;;;14.80;35.37;98296.56;5035608;28;20512;-73
2022/05/16 12:27:35;;;;;;;1.25;0.63;;;;;;;15.00;35.27;98295.88;5034507;28;20053;-71
2022/05/16 12:30:34;;;;;;;2.42;0.80;;;;;;;14.98;35.27;98287.06;5036046;28;20049;-72
2022/05/16 12:33:01;;;;;;;0.50;0.30;;;;;;;14.81;35.28;98287.78;5028121;28;20513;-73